createdAt,value
2022-09-11T00:01:12.889Z,17.18
2022-09-11T00:03:40.725Z,17.18
2022-09-11T00:06:10.751Z,17.08
2022-09-11T00:08:39.679Z,17.10
2022-09-11T00:11:12.306Z,17.03
2022-09-11T00:13:40.268Z,17.04
2022-09-11T00:16:18.056Z,17.04
2022-09-11T00:18:46.809Z,16.96
2022-09-11T00:21:13.646Z,16.98
2022-09-11T00:23:40.469Z,16.97
2022-09-11T00:26:07.243Z,16.86
2022-09-11T00:28:34.555Z,16.78
2022-09-11T00:31:07.722Z,16.83
2022-09-11T00:33:35.875Z,16.81
2022-09-11T00:36:07.864Z,16.82
2022-09-11T00:38:37.386Z,16.70
2022-09-11T00:41:08.488Z,16.81
2022-09-11T00:43:57.746Z,16.75
2022-09-11T00:46:31.564Z,16.73
2022-09-11T00:49:02.410Z,16.63
2022-09-11T00:51:33.954Z,16.63
2022-09-11T00:54:03.614Z,16.54
2022-09-11T00:56:35.650Z,16.55
2022-09-11T00:59:03.961Z,16.50
2022-09-11T01:01:30.915Z,16.62
2022-09-11T01:03:58.108Z,16.55
2022-09-11T01:06:25.540Z,16.52
2022-09-11T01:08:52.690Z,16.34
2022-09-11T01:11:30.426Z,16.47
2022-09-11T01:14:25.534Z,16.52
2022-09-11T01:16:58.658Z,16.50
2022-09-11T01:20:09.900Z,16.48
2022-09-11T01:22:51.844Z,16.41
2022-09-11T01:25:37.769Z,16.36
2022-09-11T01:28:11.497Z,16.31
2022-09-11T01:30:46.823Z,16.31
2022-09-11T01:33:28.216Z,16.28
2022-09-11T01:36:04.441Z,16.24
2022-09-11T01:38:52.849Z,16.21
2022-09-11T01:41:27.849Z,16.19
2022-09-11T01:44:18.206Z,16.21
2022-09-11T01:46:50.557Z,16.21
2022-09-11T01:49:37.427Z,16.21
2022-09-11T01:52:15.841Z,16.13
2022-09-11T01:54:51.390Z,16.09
2022-09-11T01:57:30.504Z,16.06
2022-09-11T02:00:02.203Z,16.01
2022-09-11T02:02:37.029Z,16.11
2022-09-11T02:05:18.201Z,16.12
2022-09-11T02:07:58.814Z,16.11
2022-09-11T02:10:39.812Z,16.08
2022-09-11T02:13:13.287Z,16.10
2022-09-11T02:15:48.730Z,16.07
2022-09-11T02:18:24.788Z,16.04
2022-09-11T02:20:53.919Z,16.07
2022-09-11T02:23:21.439Z,16.13
2022-09-11T02:25:48.628Z,16.00
2022-09-11T02:28:15.643Z,16.12
2022-09-11T02:30:44.000Z,16.12
2022-09-11T02:33:47.585Z,16.17
2022-09-11T02:36:39.199Z,16.21
2022-09-11T02:39:24.768Z,16.18
2022-09-11T02:42:11.093Z,16.16
2022-09-11T02:44:54.645Z,16.11
2022-09-11T02:47:45.746Z,16.12
2022-09-11T02:50:24.318Z,16.08
2022-09-11T02:53:18.602Z,16.05
2022-09-11T02:55:48.299Z,16.03
2022-09-11T02:58:22.660Z,15.98
2022-09-11T03:00:51.605Z,15.87
2022-09-11T03:03:20.743Z,15.99
2022-09-11T03:05:47.844Z,15.98
2022-09-11T03:08:17.318Z,15.92
2022-09-11T03:10:50.218Z,15.90
2022-09-11T03:13:17.191Z,15.87
2022-09-11T03:15:45.269Z,15.81
2022-09-11T03:18:15.770Z,15.77
2022-09-11T03:20:50.022Z,15.77
2022-09-11T03:23:16.706Z,15.76
2022-09-11T03:25:43.509Z,15.66
2022-09-11T03:28:11.595Z,15.60
2022-09-11T03:30:41.632Z,15.61
2022-09-11T03:33:10.175Z,15.59
2022-09-11T03:35:37.429Z,15.60
2022-09-11T03:38:04.282Z,15.59
2022-09-11T03:40:31.066Z,15.55
2022-09-11T03:42:59.740Z,15.54
2022-09-11T03:45:26.797Z,15.47
2022-09-11T03:47:53.941Z,15.58
2022-09-11T03:50:20.889Z,15.51
2022-09-11T03:52:47.599Z,15.44
2022-09-11T03:55:14.581Z,15.57
2022-09-11T03:57:41.604Z,15.52
2022-09-11T04:00:10.374Z,15.47
2022-09-11T04:02:49.791Z,15.35
2022-09-11T04:05:31.067Z,15.32
2022-09-11T04:08:00.397Z,15.31
2022-09-11T04:10:28.180Z,15.27
2022-09-11T04:12:57.525Z,15.14
2022-09-11T04:15:24.473Z,15.05
2022-09-11T04:17:52.359Z,15.08
2022-09-11T04:20:19.645Z,15.13
2022-09-11T04:22:46.850Z,15.00
2022-09-11T04:25:14.228Z,15.13
2022-09-11T04:27:41.459Z,15.06
2022-09-11T04:30:12.992Z,15.09
2022-09-11T04:32:39.700Z,15.10
2022-09-11T04:35:06.934Z,15.13
2022-09-11T04:37:40.641Z,15.09
2022-09-11T04:40:10.072Z,15.18
2022-09-11T04:42:37.254Z,15.23
2022-09-11T04:45:04.656Z,15.22
2022-09-11T04:47:32.850Z,15.17
2022-09-11T04:49:59.623Z,15.25
2022-09-11T04:52:27.884Z,15.27
2022-09-11T04:54:54.585Z,15.35
2022-09-11T04:57:21.369Z,15.39
2022-09-11T04:59:50.435Z,15.38
2022-09-11T05:02:18.571Z,15.44
2022-09-11T05:04:48.476Z,15.49
2022-09-11T05:07:15.325Z,15.51
2022-09-11T05:09:47.242Z,15.55
2022-09-11T05:12:14.894Z,15.58
2022-09-11T05:14:42.106Z,15.61
2022-09-11T05:17:08.944Z,15.64
2022-09-11T05:19:40.606Z,15.60
2022-09-11T05:22:08.143Z,15.65
2022-09-11T05:24:36.752Z,15.68
2022-09-11T05:27:03.850Z,15.77
2022-09-11T05:29:32.779Z,15.89
2022-09-11T05:32:09.172Z,15.97
2022-09-11T05:34:35.950Z,16.01
2022-09-11T05:37:03.100Z,15.93
2022-09-11T05:39:34.740Z,16.10
2022-09-11T05:42:04.555Z,16.15
2022-09-11T05:44:34.121Z,16.17
2022-09-11T05:47:00.915Z,16.20
2022-09-11T05:49:28.711Z,16.22
2022-09-11T05:51:56.857Z,16.38
2022-09-11T05:54:25.844Z,16.52
2022-09-11T05:56:54.671Z,16.62
2022-09-11T05:59:27.161Z,16.62
2022-09-11T06:01:54.878Z,16.72
2022-09-11T06:04:34.327Z,16.84
2022-09-11T06:07:01.374Z,16.96
2022-09-11T06:09:29.043Z,16.94
2022-09-11T06:11:56.736Z,17.04
2022-09-11T06:14:23.693Z,17.11
2022-09-11T06:16:51.018Z,17.17
2022-09-11T06:19:18.024Z,17.22
2022-09-11T06:21:46.055Z,17.31
2022-09-11T06:24:36.668Z,17.39
2022-09-11T06:27:03.890Z,17.30
2022-09-11T06:29:33.431Z,17.39
2022-09-11T06:32:01.325Z,17.43
2022-09-11T06:34:31.910Z,17.53
2022-09-11T06:37:02.929Z,17.61
2022-09-11T06:39:31.304Z,17.71
2022-09-11T06:41:59.781Z,17.89
2022-09-11T06:44:30.495Z,17.90
2022-09-11T06:47:00.181Z,18.02
2022-09-11T06:49:27.230Z,18.13
2022-09-11T06:52:12.718Z,18.32
2022-09-11T06:54:44.737Z,18.48
2022-09-11T06:57:15.296Z,18.54
2022-09-11T06:59:43.112Z,18.58
2022-09-11T07:02:10.379Z,18.53
2022-09-11T07:04:38.499Z,18.57
2022-09-11T07:07:05.721Z,18.61
2022-09-11T07:09:33.687Z,18.51
2022-09-11T07:12:01.453Z,18.57
2022-09-11T07:14:29.967Z,18.67
2022-09-11T07:17:07.426Z,18.78
2022-09-11T07:19:34.346Z,18.99
2022-09-11T07:22:02.409Z,19.13
2022-09-11T07:24:30.484Z,19.15
2022-09-11T07:26:58.315Z,19.42
2022-09-11T07:29:31.568Z,19.54
2022-09-11T07:31:58.973Z,19.57
2022-09-11T07:34:27.423Z,19.83
2022-09-11T07:36:55.475Z,19.96
2022-09-11T07:39:25.503Z,20.19
2022-09-11T07:42:00.570Z,20.40
2022-09-11T07:44:30.200Z,20.69
2022-09-11T07:46:57.718Z,20.75
2022-09-11T07:49:24.767Z,20.42
2022-09-11T07:51:52.703Z,20.31
2022-09-11T07:54:29.183Z,20.30
2022-09-11T07:56:58.013Z,20.28
2022-09-11T07:59:25.002Z,20.53
2022-09-11T08:01:53.464Z,20.59
2022-09-11T08:04:21.141Z,20.66
2022-09-11T08:06:48.199Z,20.78
2022-09-11T08:09:22.007Z,21.20
2022-09-11T08:11:55.983Z,21.53
2022-09-11T08:14:24.760Z,21.84
2022-09-11T08:16:53.755Z,22.18
2022-09-11T08:19:23.625Z,22.40
2022-09-11T08:21:55.367Z,22.50
2022-09-11T08:24:22.707Z,22.66
2022-09-11T08:26:51.605Z,22.74
2022-09-11T08:29:19.521Z,23.12
2022-09-11T08:31:48.025Z,23.50
2022-09-11T08:34:16.257Z,23.68
2022-09-11T08:36:45.129Z,23.77
2022-09-11T08:39:12.642Z,23.61
2022-09-11T08:41:49.410Z,23.36
2022-09-11T08:44:24.114Z,23.06
2022-09-11T08:47:01.578Z,22.67
2022-09-11T08:49:47.238Z,22.93
2022-09-11T08:52:16.785Z,23.06
2022-09-11T08:54:47.536Z,23.14
2022-09-11T08:57:16.775Z,23.12
2022-09-11T09:00:23.444Z,23.37
2022-09-11T09:03:02.932Z,23.61
2022-09-11T09:05:55.411Z,23.64
2022-09-11T09:08:37.653Z,23.61
2022-09-11T09:11:41.028Z,23.38
2022-09-11T09:14:29.307Z,23.31
2022-09-11T09:17:06.825Z,23.49
2022-09-11T09:19:41.351Z,23.45
2022-09-11T09:22:21.711Z,23.17
2022-09-11T09:24:53.761Z,23.27
2022-09-11T09:27:28.299Z,23.53
2022-09-11T09:30:02.386Z,23.69
2022-09-11T09:32:33.999Z,23.55
2022-09-11T09:35:10.974Z,23.75
2022-09-11T09:37:38.940Z,23.79
2022-09-11T09:40:09.969Z,23.96
2022-09-11T09:42:36.746Z,24.08
2022-09-11T09:45:33.829Z,24.05
2022-09-11T09:48:01.766Z,24.33
2022-09-11T09:50:39.435Z,24.34
2022-09-11T09:53:12.142Z,24.41
2022-09-11T09:55:40.532Z,24.33
2022-09-11T09:58:07.652Z,24.29
2022-09-11T10:00:37.725Z,24.12
2022-09-11T10:03:25.269Z,24.36
2022-09-11T10:05:56.303Z,24.47
2022-09-11T10:08:38.801Z,24.70
2022-09-11T10:11:12.237Z,24.80
2022-09-11T10:13:42.958Z,24.91
2022-09-11T10:16:25.636Z,24.87
2022-09-11T10:18:54.265Z,24.71
2022-09-11T10:21:25.167Z,24.69
2022-09-11T10:23:53.548Z,24.76
2022-09-11T10:26:50.561Z,24.94
2022-09-11T10:29:26.347Z,24.99
2022-09-11T10:31:55.991Z,25.09
2022-09-11T10:34:25.497Z,25.32
2022-09-11T10:37:23.615Z,25.02
2022-09-11T10:39:51.377Z,24.97
2022-09-11T10:42:25.880Z,25.25
2022-09-11T10:44:54.728Z,25.57
2022-09-11T10:47:25.102Z,25.43
2022-09-11T10:50:17.379Z,25.57
2022-09-11T10:53:17.797Z,25.49
2022-09-11T10:55:54.915Z,25.52
2022-09-11T10:58:25.506Z,25.38
2022-09-11T11:00:53.348Z,25.34
2022-09-11T11:03:24.411Z,25.19
2022-09-11T11:06:04.152Z,25.62
2022-09-11T11:09:05.072Z,25.62
2022-09-11T11:11:56.155Z,25.58
2022-09-11T11:14:49.995Z,25.66
2022-09-11T11:17:26.018Z,25.63
2022-09-11T11:20:07.241Z,25.76
2022-09-11T11:22:49.583Z,26.04
2022-09-11T11:25:41.199Z,25.99
2022-09-11T11:28:26.098Z,26.24
2022-09-11T11:31:19.469Z,26.14
2022-09-11T11:33:58.401Z,26.18
2022-09-11T11:36:46.194Z,26.08
2022-09-11T11:39:43.814Z,26.11
2022-09-11T11:42:22.688Z,26.27
2022-09-11T11:44:59.250Z,26.02
2022-09-11T11:47:32.801Z,26.29
2022-09-11T11:50:47.522Z,26.62
2022-09-11T11:53:20.388Z,26.91
2022-09-11T11:56:08.231Z,27.00
2022-09-11T11:58:41.012Z,27.42
2022-09-11T12:01:17.359Z,27.41
2022-09-11T12:03:53.176Z,27.06
2022-09-11T12:06:20.618Z,27.55
2022-09-11T12:08:48.433Z,27.92
2022-09-11T12:11:19.018Z,27.93
2022-09-11T12:13:48.484Z,27.89
2022-09-11T12:16:31.882Z,27.72
2022-09-11T12:19:12.406Z,28.32
2022-09-11T12:22:05.912Z,28.01
2022-09-11T12:24:49.936Z,27.50
2022-09-11T12:27:35.001Z,27.59
2022-09-11T12:30:28.878Z,27.12
2022-09-11T12:32:57.328Z,26.77
2022-09-11T12:35:26.816Z,27.15
2022-09-11T12:38:15.661Z,27.59
2022-09-11T12:40:57.369Z,27.69
2022-09-11T12:43:27.180Z,27.67
2022-09-11T12:45:54.046Z,27.74
2022-09-11T12:48:26.013Z,27.78
2022-09-11T12:50:55.882Z,27.56
2022-09-11T12:53:27.996Z,27.81
2022-09-11T12:56:02.583Z,28.14
2022-09-11T12:58:43.349Z,27.92
2022-09-11T13:01:10.328Z,27.69
2022-09-11T13:03:40.207Z,27.18
2022-09-11T13:06:11.844Z,26.81
2022-09-11T13:08:46.302Z,26.98
2022-09-11T13:11:38.064Z,26.88
2022-09-11T13:14:37.860Z,27.63
2022-09-11T13:17:15.072Z,28.65
2022-09-11T13:19:41.879Z,29.08
2022-09-11T13:22:27.704Z,29.20
2022-09-11T13:25:13.449Z,30.05
2022-09-11T13:27:44.327Z,30.67
2022-09-11T13:30:14.940Z,30.39
2022-09-11T13:32:43.472Z,30.71
2022-09-11T13:35:19.610Z,30.46
2022-09-11T13:38:07.531Z,30.33
2022-09-11T13:40:48.894Z,30.29
2022-09-11T13:43:23.174Z,30.72
2022-09-11T13:46:08.680Z,30.67
2022-09-11T13:48:36.841Z,30.95
2022-09-11T13:51:05.171Z,30.91
2022-09-11T13:53:33.342Z,31.19
2022-09-11T13:56:00.291Z,31.73
2022-09-11T13:58:35.273Z,30.41
2022-09-11T14:01:14.463Z,29.78
2022-09-11T14:03:46.944Z,30.06
2022-09-11T14:06:20.023Z,29.54
2022-09-11T14:08:53.845Z,29.86
2022-09-11T14:11:28.337Z,30.61
2022-09-11T14:14:06.372Z,30.34
2022-09-11T14:16:39.790Z,30.47
2022-09-11T14:19:13.290Z,31.09
2022-09-11T14:21:43.789Z,30.89
2022-09-11T14:24:33.465Z,30.73
2022-09-11T14:27:05.099Z,30.15
2022-09-11T14:29:33.881Z,30.59
2022-09-11T14:32:33.995Z,30.65
2022-09-11T14:35:01.268Z,30.08
2022-09-11T14:37:31.061Z,29.68
2022-09-11T14:40:03.139Z,30.37
2022-09-11T14:42:32.073Z,30.33
2022-09-11T14:45:00.147Z,30.35
2022-09-11T14:47:29.370Z,30.68
2022-09-11T14:49:57.544Z,31.03
2022-09-11T14:52:27.336Z,31.33
2022-09-11T14:54:55.193Z,31.82
2022-09-11T14:57:24.495Z,31.85
2022-09-11T14:59:52.531Z,31.19
2022-09-11T15:02:24.598Z,30.36
2022-09-11T15:04:53.469Z,29.72
2022-09-11T15:07:24.384Z,28.89
2022-09-11T15:09:53.046Z,28.31
2022-09-11T15:12:20.743Z,27.93
2022-09-11T15:14:58.028Z,27.46
2022-09-11T15:17:25.902Z,26.92
2022-09-11T15:19:53.467Z,26.56
2022-09-11T15:22:20.867Z,26.11
2022-09-11T15:24:48.828Z,25.95
2022-09-11T15:27:16.153Z,25.71
2022-09-11T15:29:42.952Z,25.53
2022-09-11T15:32:10.389Z,25.11
2022-09-11T15:34:39.408Z,25.06
2022-09-11T15:37:06.291Z,24.86
2022-09-11T15:39:34.057Z,24.65
2022-09-11T15:42:02.369Z,24.40
2022-09-11T15:44:29.442Z,24.21
2022-09-11T15:46:57.880Z,24.20
2022-09-11T15:49:28.527Z,24.13
2022-09-11T15:51:55.633Z,23.97
2022-09-11T15:54:23.953Z,23.84
2022-09-11T15:56:53.366Z,23.77
2022-09-11T15:59:20.510Z,23.59
2022-09-11T16:01:47.669Z,23.51
2022-09-11T16:04:19.322Z,23.40
2022-09-11T16:06:47.695Z,23.29
2022-09-11T16:09:18.431Z,23.04
2022-09-11T16:11:47.841Z,22.74
2022-09-11T16:14:19.753Z,22.51
2022-09-11T16:16:49.835Z,22.27
2022-09-11T16:19:18.622Z,21.92
2022-09-11T16:21:45.670Z,21.90
2022-09-11T16:24:14.788Z,21.84
2022-09-11T16:26:44.036Z,21.58
2022-09-11T16:29:12.534Z,21.54
2022-09-11T16:31:40.211Z,21.39
2022-09-11T16:34:07.932Z,21.15
2022-09-11T16:36:43.995Z,21.11
2022-09-11T16:39:13.913Z,21.06
2022-09-11T16:41:40.761Z,20.76
2022-09-11T16:44:10.342Z,20.67
2022-09-11T16:46:37.798Z,20.41
2022-09-11T16:49:06.142Z,20.14
2022-09-11T16:51:34.258Z,19.90
2022-09-11T16:54:03.540Z,19.67
2022-09-11T16:56:31.015Z,19.55
2022-09-11T16:58:57.750Z,19.35
2022-09-11T17:01:27.848Z,19.26
2022-09-11T17:03:57.008Z,19.15
2022-09-11T17:06:30.406Z,18.96
2022-09-11T17:08:59.838Z,18.96
2022-09-11T17:11:28.109Z,18.91
2022-09-11T17:13:54.995Z,18.89
2022-09-11T17:16:25.573Z,18.94
2022-09-11T17:18:54.803Z,18.96
2022-09-11T17:21:24.230Z,19.03
2022-09-11T17:23:52.925Z,19.11
2022-09-11T17:26:20.268Z,19.15
2022-09-11T17:28:48.991Z,19.16
2022-09-11T17:31:19.418Z,19.15
2022-09-11T17:33:47.937Z,19.00
2022-09-11T17:36:18.253Z,18.91
2022-09-11T17:38:48.265Z,18.61
2022-09-11T17:41:15.825Z,18.21
2022-09-11T17:43:42.820Z,18.22
2022-09-11T17:46:28.341Z,18.17
2022-09-11T17:48:55.591Z,18.08
2022-09-11T17:51:25.003Z,17.78
2022-09-11T17:53:57.305Z,17.66
2022-09-11T17:56:27.716Z,17.64
2022-09-11T17:58:56.777Z,17.58
2022-09-11T18:01:25.318Z,17.48
2022-09-11T18:03:57.446Z,17.48
2022-09-11T18:06:37.233Z,17.35
2022-09-11T18:09:14.006Z,17.33
2022-09-11T18:11:43.481Z,17.26
2022-09-11T18:14:13.784Z,17.22
2022-09-11T18:16:41.094Z,17.17
2022-09-11T18:19:07.962Z,17.14
2022-09-11T18:21:38.257Z,17.11
2022-09-11T18:24:06.538Z,16.96
2022-09-11T18:26:42.112Z,17.04
2022-09-11T18:29:12.350Z,16.99
2022-09-11T18:31:50.353Z,16.97
2022-09-11T18:34:23.374Z,16.96
2022-09-11T18:36:50.339Z,17.03
2022-09-11T18:39:18.952Z,17.04
2022-09-11T18:41:47.351Z,16.93
2022-09-11T18:44:19.960Z,16.89
2022-09-11T18:46:47.859Z,17.02
2022-09-11T18:49:15.410Z,17.05
2022-09-11T18:51:42.534Z,17.04
2022-09-11T18:54:18.072Z,17.04
2022-09-11T18:56:45.543Z,17.02
2022-09-11T18:59:12.931Z,16.96
2022-09-11T19:01:40.761Z,16.97
2022-09-11T19:04:12.181Z,16.93
2022-09-11T19:06:39.741Z,16.76
2022-09-11T19:09:13.613Z,16.56
2022-09-11T19:11:40.815Z,16.39
2022-09-11T19:14:10.136Z,16.42
2022-09-11T19:16:38.017Z,16.34
2022-09-11T19:19:07.446Z,16.28
2022-09-11T19:21:34.378Z,16.20
2022-09-11T19:24:02.042Z,16.16
2022-09-11T19:26:34.748Z,16.19
2022-09-11T19:29:01.886Z,16.23
2022-09-11T19:31:29.748Z,16.24
2022-09-11T19:33:58.016Z,16.17
2022-09-11T19:36:26.885Z,16.24
2022-09-11T19:38:56.110Z,16.17
2022-09-11T19:41:25.906Z,16.18
2022-09-11T19:43:54.345Z,16.20
2022-09-11T19:46:26.361Z,16.22
2022-09-11T19:48:57.002Z,16.17
2022-09-11T19:51:28.917Z,16.22
2022-09-11T19:54:00.212Z,16.20
2022-09-11T19:56:28.355Z,16.21
2022-09-11T19:58:55.789Z,16.22
2022-09-11T20:01:24.374Z,16.22
2022-09-11T20:03:53.343Z,16.23
2022-09-11T20:06:22.950Z,16.15
2022-09-11T20:08:55.999Z,16.16
2022-09-11T20:11:35.001Z,16.16
2022-09-11T20:14:01.859Z,16.08
2022-09-11T20:16:29.267Z,16.08
2022-09-11T20:19:00.520Z,16.10
2022-09-11T20:21:27.385Z,16.02
2022-09-11T20:23:55.635Z,16.04
2022-09-11T20:26:25.207Z,16.01
2022-09-11T20:29:18.233Z,15.95
2022-09-11T20:31:47.797Z,15.90
2022-09-11T20:34:19.321Z,15.78
2022-09-11T20:36:47.257Z,15.81
2022-09-11T20:39:15.804Z,15.72
2022-09-11T20:41:43.226Z,15.80
2022-09-11T20:44:10.589Z,15.78
2022-09-11T20:46:37.480Z,15.73
2022-09-11T20:49:04.899Z,15.60
2022-09-11T20:51:33.107Z,15.36
2022-09-11T20:54:00.520Z,15.41
2022-09-11T20:56:28.365Z,15.47
2022-09-11T20:58:55.907Z,15.48
2022-09-11T21:01:25.120Z,15.47
2022-09-11T21:03:56.604Z,15.38
2022-09-11T21:06:27.195Z,15.41
2022-09-11T21:08:55.987Z,15.35
2022-09-11T21:11:27.138Z,15.33
2022-09-11T21:13:54.465Z,15.38
2022-09-11T21:16:22.244Z,15.35
2022-09-11T21:18:55.016Z,15.36
2022-09-11T21:21:22.916Z,15.35
2022-09-11T21:23:49.827Z,15.22
2022-09-11T21:26:17.600Z,15.32
2022-09-11T21:28:44.865Z,15.29
2022-09-11T21:31:12.258Z,15.27
2022-09-11T21:33:40.070Z,15.19
2022-09-11T21:36:07.562Z,15.27
2022-09-11T21:38:35.978Z,15.25
2022-09-11T21:41:05.519Z,15.24
2022-09-11T21:43:32.684Z,15.25
2022-09-11T21:45:59.662Z,15.01
2022-09-11T21:48:26.504Z,15.21
2022-09-11T21:50:53.541Z,15.08
2022-09-11T21:53:20.995Z,15.16
2022-09-11T21:55:51.252Z,15.24
2022-09-11T21:58:21.063Z,15.27
2022-09-11T22:00:48.929Z,15.29
2022-09-11T22:03:18.563Z,15.28
2022-09-11T22:05:49.193Z,15.31
2022-09-11T22:08:18.581Z,15.32
2022-09-11T22:10:48.458Z,15.33
2022-09-11T22:13:16.662Z,15.28
2022-09-11T22:15:45.935Z,15.23
2022-09-11T22:18:13.406Z,15.24
2022-09-11T22:20:41.674Z,15.29
2022-09-11T22:23:13.424Z,15.23
2022-09-11T22:25:40.897Z,15.23
2022-09-11T22:28:08.017Z,15.22
2022-09-11T22:30:34.885Z,15.19
2022-09-11T22:33:01.739Z,15.16
2022-09-11T22:35:28.886Z,15.11
2022-09-11T22:37:55.788Z,15.12
2022-09-11T22:40:22.536Z,15.08
2022-09-11T22:42:49.964Z,15.10
2022-09-11T22:45:17.128Z,15.14
2022-09-11T22:47:43.843Z,15.09
2022-09-11T22:50:10.950Z,15.07
2022-09-11T22:52:37.711Z,15.07
2022-09-11T22:55:06.143Z,15.14
2022-09-11T22:57:35.437Z,15.10
2022-09-11T23:00:04.815Z,15.01
2022-09-11T23:02:32.892Z,15.02
2022-09-11T23:05:18.154Z,14.91
2022-09-11T23:07:49.106Z,14.87
2022-09-11T23:10:16.805Z,14.65
2022-09-11T23:12:44.494Z,14.83
2022-09-11T23:15:11.316Z,14.85
2022-09-11T23:17:38.035Z,14.83
2022-09-11T23:20:05.250Z,14.83
2022-09-11T23:22:31.987Z,14.79
2022-09-11T23:24:58.683Z,14.79
2022-09-11T23:27:25.425Z,14.78
2022-09-11T23:29:52.318Z,14.72
2022-09-11T23:32:19.093Z,14.67
2022-09-11T23:34:45.796Z,14.67
2022-09-11T23:37:12.538Z,14.61
2022-09-11T23:39:39.512Z,14.52
2022-09-11T23:42:06.436Z,14.50
2022-09-11T23:44:33.162Z,14.43
2022-09-11T23:47:02.280Z,14.38
2022-09-11T23:49:36.217Z,14.33
2022-09-11T23:52:04.181Z,14.23
2022-09-11T23:54:31.003Z,14.04
2022-09-11T23:56:57.981Z,14.23
2022-09-11T23:59:24.872Z,14.08
